sensor_id;sensor_type;location;lat;lon;timestamp;temperature;humidity
7476;DHT22;3779;49.216;8.650;2023-12-20T01:02:30;20.00;52.70
7476;DHT22;3779;49.216;8.650;2023-12-20T01:05:15;20.20;53.50
7476;DHT22;3779;49.216;8.650;2023-12-20T01:08:01;20.00;52.50
7476;DHT22;3779;49.216;8.650;2023-12-20T01:10:48;20.00;52.40
7476;DHT22;3779;49.216;8.650;2023-12-20T01:13:34;20.30;51.60
7476;DHT22;3779;49.216;8.650;2023-12-20T01:16:20;19.90;52.70
7476;DHT22;3779;49.216;8.650;2023-12-20T01:19:06;19.90;52.30
7476;DHT22;3779;49.216;8.650;2023-12-20T01:21:52;19.90;53.10
7476;DHT22;3779;49.216;8.650;2023-12-20T01:24:38;19.90;52.10
7476;DHT22;3779;49.216;8.650;2023-12-20T01:27:23;19.90;53.10
7476;DHT22;3779;49.216;8.650;2023-12-20T01:30:09;20.00;53.50
7476;DHT22;3779;49.216;8.650;2023-12-20T01:32:55;20.00;52.50
7476;DHT22;3779;49.216;8.650;2023-12-20T01:35:41;20.40;53.00
7476;DHT22;3779;49.216;8.650;2023-12-20T01:38:27;20.00;53.10
7476;DHT22;3779;49.216;8.650;2023-12-20T01:41:12;20.00;53.10
7476;DHT22;3779;49.216;8.650;2023-12-20T01:43:58;20.00;53.00
7476;DHT22;3779;49.216;8.650;2023-12-20T01:46:45;20.30;52.90
7476;DHT22;3779;49.216;8.650;2023-12-20T01:52:32;20.00;53.90
7476;DHT22;3779;49.216;8.650;2023-12-20T01:55:19;20.00;52.90
7476;DHT22;3779;49.216;8.650;2023-12-20T01:58:07;20.00;52.50
7476;DHT22;3779;49.216;8.650;2023-12-20T02:00:54;20.00;53.10
7476;DHT22;3779;49.216;8.650;2023-12-20T02:09:54;20.00;52.60
7476;DHT22;3779;49.216;8.650;2023-12-20T02:12:40;20.00;52.80
7476;DHT22;3779;49.216;8.650;2023-12-20T02:15:26;20.00;53.10
7476;DHT22;3779;49.216;8.650;2023-12-20T02:18:12;20.00;52.80
7476;DHT22;3779;49.216;8.650;2023-12-20T02:21:04;20.00;52.60
7476;DHT22;3779;49.216;8.650;2023-12-20T02:23:59;20.00;52.90
7476;DHT22;3779;49.216;8.650;2023-12-20T02:26:45;20.30;53.10
7476;DHT22;3779;49.216;8.650;2023-12-20T02:29:33;20.30;53.90
7476;DHT22;3779;49.216;8.650;2023-12-20T02:32:19;20.00;53.40
7476;DHT22;3779;49.216;8.650;2023-12-20T02:35:06;20.30;53.10
7476;DHT22;3779;49.216;8.650;2023-12-20T02:37:51;20.00;53.40
7476;DHT22;3779;49.216;8.650;2023-12-20T02:40:37;20.00;53.10
7476;DHT22;3779;49.216;8.650;2023-12-20T02:55:33;20.00;53.40
7476;DHT22;3779;49.216;8.650;2023-12-20T02:58:19;19.90;53.90
7476;DHT22;3779;49.216;8.650;2023-12-20T03:01:05;20.00;53.50
7476;DHT22;3779;49.216;8.650;2023-12-20T03:03:50;20.00;53.50
7476;DHT22;3779;49.216;8.650;2023-12-20T03:06:38;19.90;52.80
7476;DHT22;3779;49.216;8.650;2023-12-20T03:09:23;20.30;53.00
7476;DHT22;3779;49.216;8.650;2023-12-20T03:12:09;20.00;52.40
7476;DHT22;3779;49.216;8.650;2023-12-20T03:14:55;19.90;52.50
7476;DHT22;3779;49.216;8.650;2023-12-20T03:17:41;20.00;51.70
7476;DHT22;3779;49.216;8.650;2023-12-20T03:20:27;20.00;52.10
7476;DHT22;3779;49.216;8.650;2023-12-20T03:23:16;19.90;53.00
7476;DHT22;3779;49.216;8.650;2023-12-20T03:26:02;20.00;52.50
7476;DHT22;3779;49.216;8.650;2023-12-20T03:32:04;20.00;52.10
7476;DHT22;3779;49.216;8.650;2023-12-20T03:34:53;19.90;52.40
7476;DHT22;3779;49.216;8.650;2023-12-20T03:37:39;19.90;52.20
7476;DHT22;3779;49.216;8.650;2023-12-20T03:40:25;20.30;52.80
7476;DHT22;3779;49.216;8.650;2023-12-20T06:45:24;19.90;53.80
7476;DHT22;3779;49.216;8.650;2023-12-20T07:03:20;19.90;53.60
7476;DHT22;3779;49.216;8.650;2023-12-20T07:21:43;19.90;54.70
7476;DHT22;3779;49.216;8.650;2023-12-20T08:05:38;20.00;54.00
7476;DHT22;3779;49.216;8.650;2023-12-20T08:08:27;20.00;53.50
7476;DHT22;3779;49.216;8.650;2023-12-20T08:11:13;20.00;53.90
7476;DHT22;3779;49.216;8.650;2023-12-20T08:13:59;20.00;53.70
7476;DHT22;3779;49.216;8.650;2023-12-20T08:16:45;20.40;53.90
7476;DHT22;3779;49.216;8.650;2023-12-20T08:19:31;20.00;53.80
7476;DHT22;3779;49.216;8.650;2023-12-20T08:22:17;20.00;53.80
7476;DHT22;3779;49.216;8.650;2023-12-20T08:25:03;20.10;54.30
7476;DHT22;3779;49.216;8.650;2023-12-20T08:27:49;20.10;54.10
7476;DHT22;3779;49.216;8.650;2023-12-20T08:48:52;19.90;55.10
7476;DHT22;3779;49.216;8.650;2023-12-20T08:51:50;19.90;54.80
7476;DHT22;3779;49.216;8.650;2023-12-20T08:55:03;19.90;54.30
7476;DHT22;3779;49.216;8.650;2023-12-20T08:57:49;19.90;55.30
7476;DHT22;3779;49.216;8.650;2023-12-20T09:00:36;19.90;54.60
7476;DHT22;3779;49.216;8.650;2023-12-20T09:21:54;19.90;55.20
7476;DHT22;3779;49.216;8.650;2023-12-20T09:27:42;19.90;55.70
7476;DHT22;3779;49.216;8.650;2023-12-20T09:30:28;20.20;55.70
7476;DHT22;3779;49.216;8.650;2023-12-20T10:44:06;19.90;54.20
7476;DHT22;3779;49.216;8.650;2023-12-20T10:52:47;19.90;53.60
7476;DHT22;3779;49.216;8.650;2023-12-20T10:58:56;20.00;53.90
7476;DHT22;3779;49.216;8.650;2023-12-20T11:04:50;19.90;55.00
7476;DHT22;3779;49.216;8.650;2023-12-20T11:25:48;19.90;55.00
7476;DHT22;3779;49.216;8.650;2023-12-20T11:28:47;20.00;53.60
7476;DHT22;3779;49.216;8.650;2023-12-20T11:37:13;19.90;55.10
7476;DHT22;3779;49.216;8.650;2023-12-20T11:40:07;19.90;54.30
7476;DHT22;3779;49.216;8.650;2023-12-20T11:42:55;19.90;54.80
7476;DHT22;3779;49.216;8.650;2023-12-20T11:45:49;19.90;54.70
7476;DHT22;3779;49.216;8.650;2023-12-20T11:48:38;20.20;54.50
7476;DHT22;3779;49.216;8.650;2023-12-20T11:51:25;19.90;54.00
7476;DHT22;3779;49.216;8.650;2023-12-20T11:57:00;20.00;54.20
7476;DHT22;3779;49.216;8.650;2023-12-20T11:59:46;19.80;49.70
7476;DHT22;3779;49.216;8.650;2023-12-20T12:02:32;19.80;52.90
7476;DHT22;3779;49.216;8.650;2023-12-20T12:05:18;19.80;51.90
7476;DHT22;3779;49.216;8.650;2023-12-20T12:08:05;19.80;54.30
7476;DHT22;3779;49.216;8.650;2023-12-20T12:10:51;19.80;53.80
7476;DHT22;3779;49.216;8.650;2023-12-20T12:13:37;19.90;52.60
7476;DHT22;3779;49.216;8.650;2023-12-20T12:16:23;20.40;47.90
7476;DHT22;3779;49.216;8.650;2023-12-20T12:19:23;19.80;53.50
7476;DHT22;3779;49.216;8.650;2023-12-20T12:22:12;19.90;54.40
7476;DHT22;3779;49.216;8.650;2023-12-20T12:25:12;20.00;54.30
7476;DHT22;3779;49.216;8.650;2023-12-20T12:27:59;19.90;54.60
7476;DHT22;3779;49.216;8.650;2023-12-20T12:30:58;19.90;54.10
7476;DHT22;3779;49.216;8.650;2023-12-20T12:33:40;19.90;54.80
7476;DHT22;3779;49.216;8.650;2023-12-20T12:36:29;19.90;54.10
7476;DHT22;3779;49.216;8.650;2023-12-20T12:39:17;19.90;54.50
7476;DHT22;3779;49.216;8.650;2023-12-20T12:42:03;19.90;54.60
7476;DHT22;3779;49.216;8.650;2023-12-20T12:44:49;19.90;54.20
7476;DHT22;3779;49.216;8.650;2023-12-20T12:47:37;19.90;54.10
7476;DHT22;3779;49.216;8.650;2023-12-20T12:50:23;20.00;54.70
7476;DHT22;3779;49.216;8.650;2023-12-20T12:53:09;20.30;53.40
7476;DHT22;3779;49.216;8.650;2023-12-20T13:31:12;19.80;47.50
7476;DHT22;3779;49.216;8.650;2023-12-20T13:33:52;20.10;46.30
7476;DHT22;3779;49.216;8.650;2023-12-20T13:39:27;19.60;46.70
7476;DHT22;3779;49.216;8.650;2023-12-20T13:54:15;19.50;46.00
7476;DHT22;3779;49.216;8.650;2023-12-20T14:09:33;19.50;46.00
7476;DHT22;3779;49.216;8.650;2023-12-20T14:15:06;19.40;46.80
7476;DHT22;3779;49.216;8.650;2023-12-20T14:18:22;19.50;46.00
7476;DHT22;3779;49.216;8.650;2023-12-20T14:21:07;19.40;47.60
7476;DHT22;3779;49.216;8.650;2023-12-20T14:23:53;19.40;46.10
7476;DHT22;3779;49.216;8.650;2023-12-20T14:26:39;19.50;46.30
7476;DHT22;3779;49.216;8.650;2023-12-20T14:29:25;19.40;45.80
7476;DHT22;3779;49.216;8.650;2023-12-20T14:32:10;19.40;45.40
7476;DHT22;3779;49.216;8.650;2023-12-20T14:34:56;19.40;45.00
7476;DHT22;3779;49.216;8.650;2023-12-20T14:37:42;19.60;45.60
7476;DHT22;3779;49.216;8.650;2023-12-20T18:04:26;19.90;53.70
7476;DHT22;3779;49.216;8.650;2023-12-20T18:10:52;19.90;53.80
7476;DHT22;3779;49.216;8.650;2023-12-20T18:25:24;19.90;52.10
7476;DHT22;3779;49.216;8.650;2023-12-20T18:28:05;20.20;49.80
7476;DHT22;3779;49.216;8.650;2023-12-20T18:30:51;19.90;51.40
7476;DHT22;3779;49.216;8.650;2023-12-20T18:36:34;19.90;51.50
7476;DHT22;3779;49.216;8.650;2023-12-20T18:39:30;19.90;50.80
7476;DHT22;3779;49.216;8.650;2023-12-20T21:15:25;19.90;54.20
